Terminal Aerodrome Forecast
Issued by NWS

Home | Current Version | Previous Version | Text Only | Print | Product List | Glossary On
Versions: 1 2 3 4 5 6 7 8 9 10 11 12 13 14 15 16 17 18 19
000
FTUS46 KMTR 220500
TAFMRY
TAF
KMRY 220534Z 2206/2306 00000KT P6SM SCT200
     FM221100 VRB03KT P6SM BKN040
     FM221600 VRB03KT 6SM -SHRA BR BKN035 OVC045
     FM222000 24008KT 6SM -RA BR BKN030 OVC040
     FM222200 27006KT 6SM -RA BR BKN030 OVC040
     FM230100 26004KT P6SM SKC=

USA.gov is the U.S. government's official web portal to all federal, state and local government web resources and services.